Time;durP1;ratioP1;P1;durP2;ratioP2;P2;SDS_P1;SDS_P2;PMS_P1;PMS_P2;Temp;Humidity;BMP_temperature;BMP_pressure;BME280_temperature;BME280_humidity;BME280_pressure;Samples;Min_cycle;Max_cycle;Signal;HPM_P1;HPM_P2
2022/05/30 00:00:14;;;;;;;5.78;3.25;;;16.00;99.90;;;;;;5049184;28;20153;-77
2022/05/30 00:02:40;;;;;;;4.75;2.97;;;16.00;99.90;;;;;;5051695;28;20047;-76
2022/05/30 00:05:08;;;;;;;5.20;2.92;;;16.00;99.90;;;;;;5052033;28;20071;-77
2022/05/30 00:07:35;;;;;;;6.20;3.20;;;15.90;99.90;;;;;;5049334;28;20029;-78
2022/05/30 00:10:01;;;;;;;5.40;2.72;;;15.90;99.90;;;;;;5051642;28;20045;-78
2022/05/30 00:12:27;;;;;;;10.57;3.17;;;15.80;99.90;;;;;;5052082;28;20082;-77
2022/05/30 00:14:52;;;;;;;8.40;3.08;;;15.80;99.90;;;;;;5052651;28;20025;-77
2022/05/30 00:17:18;;;;;;;6.43;2.88;;;15.80;99.90;;;;;;5052651;28;20087;-77
2022/05/30 00:19:44;;;;;;;6.65;3.03;;;15.70;99.90;;;;;;5052367;28;20024;-78
2022/05/30 00:22:13;;;;;;;4.50;3.20;;;15.70;99.90;;;;;;5052394;28;20082;-77
2022/05/30 00:24:38;;;;;;;7.75;3.08;;;15.70;99.90;;;;;;5053656;28;20017;-79
2022/05/30 00:27:04;;;;;;;7.40;3.53;;;15.70;99.90;;;;;;5056468;28;20079;-77
2022/05/30 00:29:30;;;;;;;7.65;3.58;;;15.70;99.90;;;;;;5056586;28;20032;-78
2022/05/30 00:31:57;;;;;;;9.43;3.80;;;15.70;99.90;;;;;;5056663;28;20436;-77
2022/05/30 00:34:23;;;;;;;8.27;3.95;;;15.70;99.90;;;;;;5056154;28;20068;-79
2022/05/30 00:36:49;;;;;;;7.80;3.90;;;15.60;99.90;;;;;;5054984;28;20021;-78
2022/05/30 00:39:14;;;;;;;7.97;4.35;;;15.60;99.90;;;;;;5056204;28;20025;-80
2022/05/30 00:41:40;;;;;;;7.32;4.32;;;15.60;99.90;;;;;;5056227;28;20021;-79
2022/05/30 00:44:06;;;;;;;6.10;3.90;;;15.60;99.90;;;;;;5055649;28;20451;-78
2022/05/30 00:46:32;;;;;;;5.78;3.65;;;15.60;99.90;;;;;;5054328;28;20028;-78
2022/05/30 00:49:07;;;;;;;10.65;4.30;;;15.40;99.90;;;;;;5055743;28;20044;-79
2022/05/30 00:51:41;;;;;;;9.50;4.63;;;15.50;99.90;;;;;;5055475;28;20017;-79
2022/05/30 00:54:10;;;;;;;6.32;4.65;;;15.40;99.90;;;;;;5055977;28;20355;-78
2022/05/30 00:56:49;;;;;;;8.93;5.03;;;15.40;99.90;;;;;;5055870;28;20082;-78
2022/05/30 00:59:16;;;;;;;14.38;5.20;;;15.40;99.90;;;;;;5055524;28;20120;-79
2022/05/30 01:01:42;;;;;;;15.60;5.10;;;15.30;99.90;;;;;;5056047;28;20021;-79
2022/05/30 01:06:57;;;;;;;8.82;5.28;;;15.30;99.90;;;;;;5055939;28;20075;-79
2022/05/30 01:09:30;;;;;;;9.93;5.20;;;15.30;99.90;;;;;;5054629;28;20025;-79
2022/05/30 01:11:59;;;;;;;7.72;4.38;;;15.30;99.90;;;;;;5055659;28;20107;-78
2022/05/30 01:14:28;;;;;;;7.00;4.75;;;15.30;99.90;;;;;;5054502;28;20059;-78
2022/05/30 01:16:55;;;;;;;10.88;4.43;;;15.30;99.90;;;;;;5055676;28;20120;-78
2022/05/30 01:19:46;;;;;;;8.38;4.78;;;15.30;99.90;;;;;;5055402;28;20087;-79
2022/05/30 01:22:23;;;;;;;9.27;4.85;;;15.30;99.90;;;;;;5055725;28;20024;-77
2022/05/30 01:25:25;;;;;;;11.27;5.00;;;15.40;99.90;;;;;;5055251;28;20440;-78
2022/05/30 01:28:03;;;;;;;9.98;5.35;;;15.30;99.90;;;;;;5054281;28;20035;-79
2022/05/30 01:30:30;;;;;;;11.30;4.82;;;15.30;99.90;;;;;;5055690;28;20104;-77
2022/05/30 01:32:57;;;;;;;7.40;4.63;;;15.30;99.90;;;;;;5053654;28;20039;-77
2022/05/30 01:35:25;;;;;;;10.45;5.25;;;15.30;99.90;;;;;;5054673;28;20021;-77
2022/05/30 01:37:50;;;;;;;9.40;5.53;;;15.30;99.90;;;;;;5053994;28;20032;-79
2022/05/30 01:40:18;;;;;;;15.73;5.63;;;15.30;99.90;;;;;;5054935;28;20025;-79
2022/05/30 01:42:44;;;;;;;9.27;5.75;;;15.30;99.90;;;;;;5055261;28;20039;-79
2022/05/30 01:45:10;;;;;;;8.57;5.50;;;15.30;99.90;;;;;;5053897;28;20358;-79
2022/05/30 01:47:36;;;;;;;12.85;5.63;;;15.30;99.90;;;;;;5055067;28;20055;-80
2022/05/30 01:50:03;;;;;;;11.18;5.53;;;15.30;99.90;;;;;;5055011;28;20094;-78
2022/05/30 01:52:28;;;;;;;7.30;5.22;;;15.30;99.90;;;;;;5052858;28;20024;-79
2022/05/30 01:54:55;;;;;;;9.93;5.20;;;15.30;99.90;;;;;;5054754;28;20499;-79
2022/05/30 01:57:20;;;;;;;12.18;6.25;;;15.30;99.90;;;;;;5054959;28;20029;-80
2022/05/30 01:59:46;;;;;;;12.15;5.55;;;15.30;99.90;;;;;;5053340;28;20055;-79
2022/05/30 02:02:12;;;;;;;12.55;5.93;;;15.30;99.90;;;;;;5055156;28;20103;-79
2022/05/30 02:04:38;;;;;;;7.78;5.93;;;15.30;99.90;;;;;;5054762;28;20021;-80
2022/05/30 02:07:05;;;;;;;7.93;5.95;;;15.30;99.90;;;;;;5054177;28;20021;-79
2022/05/30 02:09:30;;;;;;;10.98;5.32;;;15.30;99.90;;;;;;5054310;28;20029;-79
2022/05/30 02:11:56;;;;;;;9.05;6.07;;;15.30;99.90;;;;;;5054907;28;20550;-77
2022/05/30 02:14:22;;;;;;;10.43;5.85;;;15.40;99.90;;;;;;5054170;28;20033;-77
2022/05/30 02:17:00;;;;;;;8.93;5.80;;;15.40;99.90;;;;;;5054146;28;20044;-78
2022/05/30 02:19:29;;;;;;;9.85;6.40;;;15.40;99.90;;;;;;5053360;28;20025;-79
2022/05/30 02:21:55;;;;;;;10.52;5.93;;;15.40;99.90;;;;;;5053037;28;20110;-80
2022/05/30 02:24:21;;;;;;;11.10;6.57;;;15.40;99.90;;;;;;5053981;28;20063;-78
2022/05/30 02:26:47;;;;;;;13.18;6.63;;;15.50;99.90;;;;;;5052446;28;20044;-79
2022/05/30 02:29:13;;;;;;;9.85;5.95;;;15.40;99.90;;;;;;5053569;28;20027;-78
2022/05/30 02:31:39;;;;;;;10.45;5.85;;;15.40;99.90;;;;;;5054081;28;20100;-79
2022/05/30 02:36:50;;;;;;;11.27;6.80;;;15.40;99.90;;;;;;5054325;28;20043;-79
2022/05/30 02:39:19;;;;;;;10.07;6.38;;;15.40;99.90;;;;;;5054151;28;20090;-77
2022/05/30 02:41:45;;;;;;;13.43;7.00;;;15.50;99.90;;;;;;5053741;28;20017;-79
2022/05/30 02:44:12;;;;;;;12.13;6.88;;;15.50;99.90;;;;;;5052774;28;20363;-78
2022/05/30 02:46:38;;;;;;;9.25;6.03;;;15.40;99.90;;;;;;5052879;28;20075;-78
2022/05/30 02:49:04;;;;;;;10.20;6.88;;;15.40;99.90;;;;;;5053056;28;20025;-78
2022/05/30 02:51:30;;;;;;;14.50;7.03;;;15.50;99.90;;;;;;5054108;28;20031;-79
2022/05/30 02:53:56;;;;;;;9.18;6.65;;;15.40;99.90;;;;;;5052683;28;20111;-78
2022/05/30 02:56:22;;;;;;;14.68;6.82;;;15.40;99.90;;;;;;5053334;28;20025;-78
2022/05/30 02:58:48;;;;;;;10.23;6.18;;;15.40;99.90;;;;;;5052621;28;20090;-77
2022/05/30 03:01:15;;;;;;;13.45;7.07;;;15.40;99.90;;;;;;5053984;28;20090;-78
2022/05/30 03:03:41;;;;;;;8.55;6.70;;;15.40;99.90;;;;;;5053542;28;20063;-78
2022/05/30 03:06:07;;;;;;;9.10;7.00;;;15.40;99.90;;;;;;5052557;28;20025;-77
2022/05/30 03:08:33;;;;;;;14.00;7.63;;;15.40;99.90;;;;;;5053922;28;20021;-81
2022/05/30 03:10:59;;;;;;;10.93;8.13;;;15.40;99.90;;;;;;5053924;28;20021;-78
2022/05/30 03:13:25;;;;;;;14.57;7.78;;;15.40;99.90;;;;;;5053456;28;20348;-77
2022/05/30 03:15:51;;;;;;;12.57;9.18;;;15.40;99.90;;;;;;5053403;28;20028;-78
2022/05/30 03:18:17;;;;;;;13.80;8.57;;;15.40;99.90;;;;;;5053275;28;20037;-77
2022/05/30 03:20:42;;;;;;;12.35;8.63;;;15.50;99.90;;;;;;5053694;28;20363;-78
2022/05/30 03:23:08;;;;;;;15.05;9.15;;;15.40;99.90;;;;;;5053356;28;20371;-77
2022/05/30 03:25:34;;;;;;;17.35;8.93;;;15.50;99.90;;;;;;5053340;28;20017;-77
2022/05/30 03:28:00;;;;;;;21.33;9.60;;;15.50;99.90;;;;;;5051779;28;20032;-77
2022/05/30 03:30:27;;;;;;;16.08;9.20;;;15.50;99.90;;;;;;5052686;28;20029;-78
2022/05/30 03:32:53;;;;;;;16.08;9.85;;;15.40;99.90;;;;;;5052237;28;20020;-79
2022/05/30 03:35:20;;;;;;;15.38;9.45;;;15.40;99.90;;;;;;5053450;28;20105;-80
2022/05/30 03:37:46;;;;;;;13.60;9.70;;;15.40;99.90;;;;;;5052900;28;20033;-79
2022/05/30 03:40:13;;;;;;;15.95;10.05;;;15.40;99.90;;;;;;5053755;28;20021;-78
2022/05/30 03:42:39;;;;;;;18.40;9.95;;;15.50;99.90;;;;;;5053485;28;20079;-78
2022/05/30 03:45:07;;;;;;;16.85;10.00;;;15.50;99.90;;;;;;5052875;28;20021;-78
2022/05/30 03:47:41;;;;;;;20.20;10.30;;;15.50;99.90;;;;;;5052214;28;20024;-78
2022/05/30 03:50:09;;;;;;;19.13;9.70;;;15.60;99.90;;;;;;5053732;28;20020;-79
2022/05/30 03:52:34;;;;;;;14.32;10.25;;;15.60;99.90;;;;;;5053013;28;20079;-78
2022/05/30 03:55:11;;;;;;;16.20;11.57;;;15.60;99.90;;;;;;5053158;28;20410;-78
2022/05/30 03:57:38;;;;;;;16.85;12.05;;;15.50;99.90;;;;;;5053554;28;20069;-77
2022/05/30 04:00:04;;;;;;;18.60;12.60;;;15.60;99.90;;;;;;5054086;28;20082;-79
2022/05/30 04:02:30;;;;;;;18.70;14.10;;;15.50;99.90;;;;;;5056665;28;20473;-79
2022/05/30 04:04:56;;;;;;;21.35;14.20;;;15.50;99.90;;;;;;5057110;28;20048;-80
2022/05/30 04:07:22;;;;;;;20.48;14.65;;;15.40;99.90;;;;;;5055248;28;20033;-79
2022/05/30 04:09:48;;;;;;;24.95;15.63;;;15.30;99.90;;;;;;5056897;28;20107;-77
2022/05/30 04:12:14;;;;;;;23.77;15.50;;;15.40;99.90;;;;;;5054705;28;20170;-77
2022/05/30 04:14:39;;;;;;;22.48;16.13;;;15.30;99.90;;;;;;5056243;28;20013;-78
2022/05/30 04:17:05;;;;;;;23.50;16.45;;;15.30;99.90;;;;;;5056076;28;20041;-78
2022/05/30 04:19:31;;;;;;;20.98;14.18;;;15.40;99.90;;;;;;5056490;28;20456;-79
2022/05/30 04:21:56;;;;;;;17.83;13.63;;;15.40;99.90;;;;;;5056995;28;20443;-79
2022/05/30 04:24:22;;;;;;;18.77;13.02;;;15.60;99.90;;;;;;5056618;28;20078;-79
2022/05/30 04:26:48;;;;;;;19.50;12.07;;;15.60;99.90;;;;;;5056559;28;20017;-78
2022/05/30 04:29:14;;;;;;;22.92;12.07;;;15.70;99.90;;;;;;5056615;28;20079;-80
2022/05/30 04:31:39;;;;;;;23.17;11.60;;;15.80;99.90;;;;;;5055508;28;20359;-79
2022/05/30 04:34:06;;;;;;;18.27;11.25;;;15.80;99.90;;;;;;5056152;28;20108;-78
2022/05/30 04:36:33;;;;;;;19.08;12.00;;;15.90;99.90;;;;;;5056404;28;20021;-78
2022/05/30 04:38:59;;;;;;;15.30;9.77;;;15.90;99.90;;;;;;5056599;28;20025;-79
2022/05/30 04:41:25;;;;;;;17.65;10.93;;;15.80;99.90;;;;;;5056336;28;20114;-80
2022/05/30 04:43:50;;;;;;;16.08;10.20;;;15.80;99.90;;;;;;5056876;28;20371;-78
2022/05/30 04:46:19;;;;;;;20.20;11.23;;;15.90;99.90;;;;;;5055262;28;20067;-78
2022/05/30 04:48:46;;;;;;;14.70;9.77;;;16.00;99.90;;;;;;5054743;28;20435;-77
2022/05/30 04:51:12;;;;;;;15.18;9.95;;;15.90;99.90;;;;;;5036403;28;20028;-79
2022/05/30 04:53:40;;;;;;;16.30;9.90;;;16.00;99.90;;;;;;5036513;28;20363;-79
2022/05/30 04:56:05;;;;;;;16.88;9.88;;;16.00;99.90;;;;;;5034771;28;20021;-80
2022/05/30 04:58:36;;;;;;;17.20;10.52;;;16.10;99.90;;;;;;5036405;28;20044;-77
2022/05/30 05:01:05;;;;;;;14.50;9.77;;;16.10;99.90;;;;;;5036393;28;20034;-78
2022/05/30 05:03:32;;;;;;;21.60;9.65;;;16.10;99.90;;;;;;5036006;28;20021;-77
2022/05/30 05:06:07;;;;;;;12.93;9.57;;;16.10;99.90;;;;;;5036597;28;20021;-77
2022/05/30 05:08:44;;;;;;;19.60;10.43;;;16.10;99.90;;;;;;5035645;28;20017;-77
2022/05/30 05:11:16;;;;;;;18.20;10.25;;;16.10;99.90;;;;;;5035793;28;20026;-77
2022/05/30 05:13:41;;;;;;;;;;;16.10;99.90;;;;;;5036504;28;20017;-79
2022/05/30 05:16:08;;;;;;;13.63;9.60;;;16.10;99.90;;;;;;5035704;28;19940;-77
2022/05/30 05:18:34;;;;;;;17.33;10.93;;;16.10;99.90;;;;;;5035517;28;20060;-76
2022/05/30 05:21:00;;;;;;;18.80;10.50;;;16.10;99.90;;;;;;5036215;28;20049;-78
2022/05/30 05:23:26;;;;;;;20.70;10.98;;;16.00;99.90;;;;;;5034260;28;20049;-78
2022/05/30 05:25:51;;;;;;;17.83;10.13;;;16.00;99.90;;;;;;5035569;28;20029;-78
2022/05/30 05:28:17;;;;;;;14.60;8.95;;;16.00;99.90;;;;;;5035808;28;20056;-79
2022/05/30 05:30:43;;;;;;;20.52;8.73;;;15.90;99.90;;;;;;5035227;28;20101;-79
2022/05/30 05:33:11;;;;;;;15.32;7.85;;;15.90;99.90;;;;;;5034450;28;20076;-78
2022/05/30 05:35:46;;;;;;;19.42;8.27;;;15.80;99.90;;;;;;5035486;28;20076;-78
2022/05/30 05:38:13;;;;;;;13.10;8.75;;;15.80;99.90;;;;;;5035207;28;20033;-78
2022/05/30 05:40:40;;;;;;;17.52;8.23;;;15.80;99.90;;;;;;5035823;28;20033;-79
2022/05/30 05:43:06;;;;;;;14.15;8.75;;;15.70;99.90;;;;;;5034318;28;20021;-78
2022/05/30 05:45:36;;;;;;;15.77;8.93;;;15.70;99.90;;;;;;5033884;28;20483;-79
2022/05/30 05:48:02;;;;;;;12.38;8.48;;;15.80;99.90;;;;;;5034180;28;20026;-79
2022/05/30 05:50:28;;;;;;;15.77;8.90;;;15.70;99.90;;;;;;5034984;28;20017;-79
2022/05/30 05:52:54;;;;;;;13.77;8.40;;;15.60;99.90;;;;;;5035463;28;20029;-79
2022/05/30 05:55:21;;;;;;;13.02;9.15;;;15.70;99.90;;;;;;5035277;28;20483;-77
2022/05/30 05:57:47;;;;;;;13.93;9.90;;;15.70;99.90;;;;;;5034857;28;20482;-77
2022/05/30 06:00:14;;;;;;;13.45;8.95;;;15.70;99.90;;;;;;5033933;28;20026;-77
2022/05/30 06:02:40;;;;;;;17.27;8.82;;;15.80;99.90;;;;;;5035081;28;20017;-78
2022/05/30 06:05:08;;;;;;;14.05;9.18;;;15.90;99.90;;;;;;5034485;28;20029;-76
2022/05/30 06:07:39;;;;;;;14.70;8.93;;;15.90;99.90;;;;;;5035050;28;20038;-76
2022/05/30 06:10:07;;;;;;;13.55;9.32;;;15.90;99.90;;;;;;5037298;28;20032;-77
2022/05/30 06:12:37;;;;;;;12.95;9.23;;;15.90;99.90;;;;;;5054438;28;20061;-76
2022/05/30 06:15:04;;;;;;;14.23;9.10;;;16.00;99.90;;;;;;5054579;28;20040;-74
2022/05/30 06:17:32;;;;;;;13.77;8.63;;;16.00;99.90;;;;;;5054777;28;20049;-74
2022/05/30 06:19:59;;;;;;;18.00;10.35;;;16.00;99.90;;;;;;5054455;28;20028;-74
2022/05/30 06:22:25;;;;;;;20.52;10.18;;;16.00;99.90;;;;;;5053814;28;20332;-75
2022/05/30 06:24:51;;;;;;;14.48;8.88;;;16.00;99.90;;;;;;5054824;28;20082;-77
2022/05/30 06:27:18;;;;;;;12.30;8.77;;;15.90;99.90;;;;;;5053991;28;20052;-80
2022/05/30 06:29:44;;;;;;;16.90;9.10;;;16.00;99.90;;;;;;5054630;28;20017;-78
2022/05/30 06:32:10;;;;;;;11.43;9.65;;;16.00;99.90;;;;;;5053301;28;20031;-77
2022/05/30 06:34:36;;;;;;;14.13;9.18;;;16.00;99.90;;;;;;5052895;28;20021;-79
2022/05/30 06:37:02;;;;;;;15.93;9.60;;;15.90;99.90;;;;;;5054481;28;20465;-78
2022/05/30 06:39:28;;;;;;;14.95;9.63;;;15.90;99.90;;;;;;5053998;28;20045;-77
2022/05/30 06:41:53;;;;;;;13.35;9.80;;;16.00;99.90;;;;;;5054365;28;20443;-78
2022/05/30 06:44:19;;;;;;;15.57;12.23;;;16.00;99.90;;;;;;5054289;28;20020;-79
2022/05/30 06:46:45;;;;;;;13.80;9.68;;;15.90;99.90;;;;;;5052600;28;20113;-76
2022/05/30 06:49:11;;;;;;;13.95;8.68;;;16.00;99.90;;;;;;5054201;28;20426;-77
2022/05/30 06:51:37;;;;;;;17.90;9.15;;;16.00;99.90;;;;;;5052905;28;20020;-76
2022/05/30 06:54:05;;;;;;;17.35;9.57;;;16.10;99.90;;;;;;5053227;28;20366;-76
2022/05/30 06:56:39;;;;;;;17.30;9.55;;;16.10;99.90;;;;;;5052837;28;20115;-77
2022/05/30 06:59:05;;;;;;;16.63;9.68;;;16.20;99.90;;;;;;5054051;28;20029;-77
2022/05/30 07:01:34;;;;;;;12.20;9.35;;;16.40;99.90;;;;;;5053709;28;20359;-78
2022/05/30 07:04:00;;;;;;;16.70;10.20;;;16.40;99.90;;;;;;5054053;28;20087;-76
2022/05/30 07:06:34;;;;;;;14.63;9.00;;;16.60;99.90;;;;;;5053984;28;20021;-76
2022/05/30 07:09:01;;;;;;;10.25;9.15;;;16.90;99.90;;;;;;5052656;28;20478;-74
2022/05/30 07:11:27;;;;;;;11.63;8.57;;;17.00;99.90;;;;;;5051924;28;20028;-76
2022/05/30 07:13:52;;;;;;;12.90;9.45;;;17.10;99.90;;;;;;5051843;28;20013;-76
2022/05/30 07:16:21;;;;;;;14.30;8.40;;;17.10;99.90;;;;;;5052991;28;20013;-75
2022/05/30 07:18:47;;;;;;;17.10;8.95;;;17.10;99.90;;;;;;5052809;28;20079;-75
2022/05/30 07:21:14;;;;;;;11.88;8.65;;;17.00;99.90;;;;;;5053530;28;20383;-74
2022/05/30 07:23:41;;;;;;;14.65;8.95;;;17.10;99.90;;;;;;5053511;28;20074;-75
2022/05/30 07:26:13;;;;;;;17.33;10.00;;;17.00;99.90;;;;;;5054035;28;20100;-76
2022/05/30 07:28:39;;;;;;;13.90;9.30;;;17.10;99.90;;;;;;5053360;28;20083;-75
2022/05/30 07:31:10;;;;;;;13.45;9.30;;;17.00;99.90;;;;;;5053401;28;20029;-77
2022/05/30 07:33:38;;;;;;;13.95;8.98;;;17.00;99.90;;;;;;5053612;28;20104;-76
2022/05/30 07:36:08;;;;;;;11.18;9.35;;;16.90;99.90;;;;;;5057248;28;20028;-77
2022/05/30 07:38:35;;;;;;;14.00;10.30;;;17.00;99.90;;;;;;5057675;28;20021;-76
2022/05/30 07:41:01;;;;;;;15.57;9.43;;;17.00;99.90;;;;;;5057475;28;20017;-75
2022/05/30 07:43:26;;;;;;;15.30;9.93;;;17.00;99.90;;;;;;5057107;28;20451;-76
2022/05/30 07:45:52;;;;;;;14.45;9.52;;;17.00;99.90;;;;;;5057539;28;20036;-73
2022/05/30 07:48:19;;;;;;;16.92;10.40;;;17.20;99.90;;;;;;5057550;28;20095;-76
2022/05/30 07:50:45;;;;;;;12.98;9.93;;;17.60;99.90;;;;;;5056404;28;20100;-75
2022/05/30 07:53:11;;;;;;;12.75;9.35;;;17.80;99.90;;;;;;5057108;28;20053;-76
2022/05/30 07:55:39;;;;;;;15.82;9.95;;;17.80;99.90;;;;;;5057196;28;20533;-78
2022/05/30 07:58:05;;;;;;;22.77;11.55;;;17.80;99.90;;;;;;5057090;28;20451;-76
2022/05/30 08:00:34;;;;;;;16.30;11.52;;;17.90;99.90;;;;;;5057126;28;20021;-74
2022/05/30 08:03:00;;;;;;;16.75;9.88;;;17.90;99.90;;;;;;5057214;28;20021;-76
2022/05/30 08:05:26;;;;;;;13.60;10.25;;;18.00;99.90;;;;;;5056959;28;20028;-77
2022/05/30 08:07:52;;;;;;;17.48;9.75;;;18.10;99.90;;;;;;5056911;28;20025;-75
2022/05/30 08:10:19;;;;;;;17.23;10.07;;;18.10;99.90;;;;;;5057092;28;20020;-78
2022/05/30 08:12:46;;;;;;;20.58;10.75;;;18.10;99.90;;;;;;5057172;28;20020;-75
2022/05/30 08:15:14;;;;;;;13.90;9.77;;;18.10;99.90;;;;;;5057143;28;20045;-76
2022/05/30 08:17:41;;;;;;;15.23;9.77;;;18.10;99.90;;;;;;5056486;28;20064;-75
2022/05/30 08:20:10;;;;;;;15.00;9.63;;;18.00;99.90;;;;;;5057254;28;20493;-74
2022/05/30 08:22:36;;;;;;;15.30;10.93;;;18.00;99.90;;;;;;5056699;28;20060;-74
2022/05/30 08:25:08;;;;;;;12.40;9.05;;;18.10;99.90;;;;;;5056606;28;20534;-74
2022/05/30 08:27:34;;;;;;;17.65;9.82;;;18.20;99.90;;;;;;5055691;28;20036;-76
2022/05/30 08:30:00;;;;;;;14.23;9.75;;;18.20;99.90;;;;;;5056224;28;20013;-73
2022/05/30 08:32:37;;;;;;;25.20;11.20;;;18.30;99.90;;;;;;5055812;28;20070;-75
2022/05/30 08:35:04;;;;;;;15.85;10.45;;;18.50;99.90;;;;;;5057116;28;20071;-74
2022/05/30 08:37:32;;;;;;;13.63;11.68;;;18.80;99.90;;;;;;5056678;28;20099;-73
2022/05/30 08:42:44;;;;;;;21.55;16.33;;;19.00;99.90;;;;;;5056155;28;20040;-73
2022/05/30 08:45:16;;;;;;;25.23;18.63;;;19.10;99.90;;;;;;5055812;28;20439;-76
2022/05/30 08:47:55;;;;;;;27.67;19.40;;;19.10;99.90;;;;;;5056267;28;20447;-75
2022/05/30 08:50:58;;;;;;;27.90;22.42;;;19.10;99.90;;;;;;5056578;28;20032;-74
2022/05/30 08:53:24;;;;;;;30.35;21.58;;;19.30;99.90;;;;;;5055770;28;20104;-74
2022/05/30 08:55:58;;;;;;;26.88;20.77;;;19.60;99.90;;;;;;5056702;28;20103;-74
2022/05/30 08:58:42;;;;;;;23.20;18.27;;;20.00;99.90;;;;;;5056317;28;20025;-75
2022/05/30 09:01:20;;;;;;;20.88;17.33;;;20.30;99.90;;;;;;5055771;28;20047;-74
2022/05/30 09:04:11;;;;;;;19.08;14.85;;;20.40;99.90;;;;;;5056371;28;20025;-74
2022/05/30 09:06:51;;;;;;;23.80;18.30;;;20.50;99.90;;;;;;5055999;28;20017;-74
2022/05/30 09:09:35;;;;;;;25.10;20.17;;;20.80;99.90;;;;;;5056184;28;20024;-73
2022/05/30 09:12:10;;;;;;;26.45;21.27;;;20.80;99.90;;;;;;5056104;28;20024;-75
2022/05/30 09:14:47;;;;;;;23.63;20.00;;;20.80;99.90;;;;;;5055362;28;20100;-75
2022/05/30 09:17:21;;;;;;;23.50;18.35;;;20.50;99.90;;;;;;5056028;28;20041;-73
2022/05/30 09:19:48;;;;;;;25.23;19.23;;;20.80;99.90;;;;;;5055719;28;20035;-73
2022/05/30 09:22:15;;;;;;;32.30;25.20;;;21.00;99.90;;;;;;5055294;28;20519;-73
2022/05/30 09:25:55;;;;;;;31.15;24.60;;;20.80;99.90;;;;;;5055537;28;20020;-75
2022/05/30 09:27:32;;;;;;;33.77;24.97;;;20.60;99.90;;;;;;5055220;28;20105;-73
2022/05/30 09:30:00;;;;;;;27.88;23.08;;;20.30;99.90;;;;;;5055605;28;20053;-76
2022/05/30 09:32:31;;;;;;;27.40;22.25;;;20.10;99.90;;;;;;5055714;28;20025;-73
2022/05/30 09:35:20;;;;;;;36.90;23.30;;;20.00;99.90;;;;;;5055258;28;20443;-74
2022/05/30 09:37:46;;;;;;;37.13;23.88;;;19.90;99.90;;;;;;5055601;28;20025;-75
2022/05/30 09:40:12;;;;;;;31.98;22.10;;;19.90;99.90;;;;;;5055519;28;20040;-75
2022/05/30 09:42:49;;;;;;;36.00;23.50;;;19.90;99.90;;;;;;5054832;28;20021;-74
2022/05/30 09:45:25;;;;;;;29.17;23.27;;;19.90;99.90;;;;;;5055520;28;20494;-72
2022/05/30 09:48:21;;;;;;;35.90;23.08;;;19.90;99.90;;;;;;5055139;28;20359;-73
2022/05/30 09:50:53;;;;;;;33.38;27.10;;;19.90;99.90;;;;;;5055292;28;20028;-74
2022/05/30 09:53:47;;;;;;;36.17;28.58;;;19.90;99.90;;;;;;5055580;28;20021;-74
2022/05/30 09:56:18;;;;;;;39.75;26.70;;;20.00;99.90;;;;;;5054755;28;20027;-73
2022/05/30 09:58:58;;;;;;;33.75;26.20;;;20.20;99.90;;;;;;5053893;28;20100;-72
2022/05/30 10:01:25;;;;;;;38.28;27.58;;;20.30;99.90;;;;;;5055435;28;20033;-72
2022/05/30 10:04:00;;;;;;;37.78;26.17;;;20.40;99.90;;;;;;5054846;28;20096;-76
2022/05/30 10:06:27;;;;;;;34.22;26.67;;;20.50;99.90;;;;;;5055332;28;20108;-74
2022/05/30 10:09:10;;;;;;;29.23;24.42;;;20.60;99.90;;;;;;5054900;28;20071;-74
2022/05/30 10:11:36;;;;;;;29.80;24.25;;;;;;;;;;5054227;28;20395;-73
2022/05/30 10:14:40;;;;;;;33.05;25.05;;;21.10;99.90;;;;;;5054840;28;20021;-73
2022/05/30 10:17:21;;;;;;;29.38;21.77;;;21.20;99.90;;;;;;5032226;28;20141;-74
2022/05/30 10:19:48;;;;;;;30.70;25.00;;;21.20;99.90;;;;;;5032617;28;20041;-72
2022/05/30 10:28:45;;;;;;;37.57;26.83;;;20.80;99.90;;;;;;5032852;28;20052;-73
2022/05/30 10:31:44;;;;;;;43.42;27.38;;;20.80;99.90;;;;;;5032333;28;20036;-73
2022/05/30 10:34:53;;;;;;;30.02;25.38;;;20.80;99.90;;;;;;5032320;28;20029;-73
2022/05/30 10:37:46;;;;;;;26.98;22.30;;;20.70;99.90;;;;;;5001714;28;20033;-73
2022/05/30 10:40:33;;;;;;;26.83;19.70;;;20.80;99.90;;;;;;5032153;28;20044;-73
2022/05/30 10:43:13;;;;;;;23.83;19.10;;;20.70;99.90;;;;;;5032134;28;20049;-74
2022/05/30 10:45:54;;;;;;;26.70;18.60;;;20.60;99.90;;;;;;5031867;28;20513;-74
2022/05/30 10:48:44;;;;;;;22.88;19.05;;;20.60;99.90;;;;;;5032090;28;20022;-73
2022/05/30 10:51:17;;;;;;;24.80;18.98;;;20.70;99.90;;;;;;5044368;28;20120;-73
2022/05/30 10:53:47;;;;;;;23.52;18.40;;;20.80;99.90;;;;;;5054252;28;20025;-73
2022/05/30 10:56:37;;;;;;;21.40;16.80;;;20.90;99.90;;;;;;5054161;28;20017;-72
2022/05/30 10:59:14;;;;;;;22.98;16.13;;;21.00;99.90;;;;;;5053726;28;20064;-73
2022/05/30 11:01:55;;;;;;;24.05;17.17;;;20.90;99.90;;;;;;5053856;28;20062;-74
2022/05/30 11:04:39;;;;;;;22.23;17.45;;;20.90;99.90;;;;;;5053895;28;20025;-74
2022/05/30 11:07:17;;;;;;;24.65;18.27;;;20.80;99.90;;;;;;5053907;28;20029;-73
2022/05/30 11:10:06;;;;;;;25.13;19.23;;;20.90;99.90;;;;;;5053672;28;20332;-74
2022/05/30 11:12:43;;;;;;;28.13;19.60;;;21.10;99.90;;;;;;5053887;28;20028;-72
2022/05/30 11:15:38;;;;;;;24.45;19.15;;;21.10;99.90;;;;;;5054003;28;20025;-72
2022/05/30 11:18:23;;;;;;;24.73;19.20;;;21.30;99.90;;;;;;5031020;28;20103;-74
2022/05/30 11:21:15;;;;;;;25.63;19.67;;;21.30;99.90;;;;;;5031462;28;20064;-75
2022/05/30 11:23:43;;;;;;;25.73;20.13;;;21.10;99.90;;;;;;5031657;28;20026;-75
2022/05/30 11:26:42;;;;;;;25.00;21.02;;;21.00;99.90;;;;;;5031553;28;20026;-74
2022/05/30 11:29:32;;;;;;;33.10;21.33;;;20.90;99.90;;;;;;4995101;28;20470;-74
2022/05/30 11:32:07;;;;;;;27.45;21.90;;;20.90;99.90;;;;;;5031464;28;20364;-73
2022/05/30 11:34:42;;;;;;;31.65;21.45;;;20.90;99.90;;;;;;5031231;28;20503;-73
2022/05/30 11:37:29;;;;;;;29.00;22.15;;;20.90;99.90;;;;;;5031225;28;20021;-74
2022/05/30 11:40:12;;;;;;;28.63;21.77;;;20.90;99.90;;;;;;5031425;28;20034;-76
2022/05/30 11:42:47;;;;;;;29.65;23.30;;;20.80;99.90;;;;;;5031088;28;20144;-74
2022/05/30 11:45:34;;;;;;;29.65;21.08;;;20.70;99.90;;;;;;5031382;28;20021;-76
2022/05/30 11:48:12;;;;;;;30.95;21.55;;;20.70;99.90;;;;;;5030907;28;20041;-73
2022/05/30 11:50:47;;;;;;;32.50;24.88;;;20.60;99.90;;;;;;5031286;28;20451;-74
2022/05/30 11:53:35;;;;;;;32.75;24.05;;;20.70;99.90;;;;;;5030279;28;20035;-75
2022/05/30 11:56:37;;;;;;;30.88;24.75;;;20.60;99.90;;;;;;5051526;28;20037;-74
2022/05/30 11:59:33;;;;;;;32.47;24.90;;;20.50;99.90;;;;;;5052293;28;20025;-74
2022/05/30 12:02:04;;;;;;;35.47;24.65;;;20.40;99.90;;;;;;5051825;28;20033;-74
2022/05/30 12:04:51;;;;;;;31.83;24.33;;;20.40;99.90;;;;;;5052946;28;20021;-75
2022/05/30 12:07:17;;;;;;;24.95;19.75;;;20.50;99.90;;;;;;5052594;28;20028;-73
2022/05/30 12:09:52;;;;;;;25.27;18.98;;;20.40;99.90;;;;;;5052377;28;20013;-76
2022/05/30 12:12:46;;;;;;;24.63;16.83;;;20.40;99.90;;;;;;5052489;28;20051;-75
2022/05/30 12:15:48;;;;;;;24.95;17.38;;;20.40;99.90;;;;;;5052152;28;20021;-74
2022/05/30 12:24:18;;;;;;;25.40;17.25;;;21.00;99.90;;;;;;5055676;28;20370;-76
2022/05/30 12:26:52;;;;;;;29.35;16.80;;;21.10;99.90;;;;;;5056325;28;20025;-75
2022/05/30 12:29:37;;;;;;;20.98;16.38;;;21.10;99.90;;;;;;5055875;28;20025;-76
2022/05/30 12:32:21;;;;;;;24.48;17.98;;;21.70;99.90;;;;;;5055978;28;20051;-74
2022/05/30 12:35:00;;;;;;;21.33;15.75;;;21.80;99.90;;;;;;5056455;28;20021;-75
2022/05/30 12:37:41;;;;;;;21.77;16.38;;;21.70;99.90;;;;;;5055445;28;20516;-74
2022/05/30 12:40:13;;;;;;;23.00;16.25;;;21.70;99.90;;;;;;5055957;28;20158;-76
2022/05/30 12:42:43;;;;;;;22.98;17.02;;;21.60;99.90;;;;;;5056090;28;20021;-76
2022/05/30 12:45:33;;;;;;;22.77;17.20;;;21.40;99.90;;;;;;5055414;28;20086;-74
2022/05/30 12:48:09;;;;;;;18.98;16.13;;;21.30;99.90;;;;;;5056101;28;20037;-75
2022/05/30 12:50:34;;;;;;;28.92;17.90;;;21.10;99.90;;;;;;5055955;28;20104;-75
2022/05/30 12:53:05;;;;;;;23.73;18.00;;;21.00;99.90;;;;;;5055845;28;20139;-75
2022/05/30 12:55:46;;;;;;;23.63;18.67;;;21.00;99.90;;;;;;5056260;28;20452;-75
2022/05/30 12:58:19;;;;;;;24.63;18.83;;;20.90;99.90;;;;;;5055867;28;20029;-74
2022/05/30 13:00:48;;;;;;;23.98;17.05;;;20.90;99.90;;;;;;5056723;28;20112;-74
2022/05/30 13:03:20;;;;;;;21.63;18.13;;;21.00;99.90;;;;;;5056505;28;20057;-74
2022/05/30 13:05:57;;;;;;;;;;;21.00;99.90;;;;;;5056297;28;20025;-74
2022/05/30 13:08:46;;;;;;;28.23;18.40;;;21.10;99.90;;;;;;5056183;28;20350;-73
2022/05/30 13:11:24;;;;;;;24.48;18.02;;;21.10;99.90;;;;;;5056144;28;20522;-74
2022/05/30 13:13:55;;;;;;;29.23;17.35;;;21.20;99.90;;;;;;5056539;28;20078;-76
2022/05/30 13:16:38;;;;;;;32.40;19.92;;;21.40;99.90;;;;;;5055811;28;20057;-75